Time;durP1;ratioP1;P1;durP2;ratioP2;P2;SDS_P1;SDS_P2;PMS_P1;PMS_P2;Temp;Humidity;BMP_temperature;BMP_pressure;BME280_temperature;BME280_humidity;BME280_pressure;Samples;Min_cycle;Max_cycle;Signal;HPM_P1;HPM_P2
2022/04/25 00:00:03;;;;;;;5.80;4.85;;;;;;;15.68;59.68;101147.09;1636529;87;21085;-66
2022/04/25 00:02:33;;;;;;;6.22;5.50;;;;;;;15.67;59.68;101140.56;1595837;89;21077;-66
2022/04/25 00:05:00;;;;;;;7.08;5.05;;;;;;;15.67;59.82;101140.11;1640608;87;21053;-66
2022/04/25 00:07:26;;;;;;;7.03;5.33;;;;;;;15.67;59.89;101136.62;1600688;89;21061;-67
2022/04/25 00:09:54;;;;;;;8.50;5.33;;;;;;;15.67;59.84;101133.55;1644848;86;21126;-66
2022/04/25 00:12:22;;;;;;;6.83;4.75;;;;;;;15.65;59.88;101132.75;1642630;85;21094;-66
2022/04/25 00:14:51;;;;;;;6.97;5.12;;;;;;;15.65;59.81;101132.75;1609465;87;21085;-67
2022/04/25 00:17:17;;;;;;;6.22;5.08;;;;;;;15.65;59.94;101139.76;1612704;88;21593;-66
2022/04/25 00:19:46;;;;;;;8.03;5.03;;;;;;;15.64;60.02;101131.03;1649758;85;21038;-66
2022/04/25 00:22:15;;;;;;;9.45;5.10;;;;;;;15.65;60.04;101128.81;1643252;85;21038;-66
2022/04/25 00:24:44;;;;;;;8.90;5.10;;;;;;;15.66;60.01;101137.07;1641399;85;21100;-66
2022/04/25 00:27:12;;;;;;;6.42;4.80;;;;;;;15.66;59.98;101137.07;1640347;85;21071;-66
2022/04/25 00:29:40;;;;;;;6.33;4.70;;;;;;;15.65;59.96;101141.07;1640665;85;21066;-66
2022/04/25 00:32:08;;;;;;;7.00;4.72;;;;;;;15.62;59.96;101135.47;1611684;87;21043;-66
2022/04/25 00:34:36;;;;;;;6.35;4.55;;;;;;;15.61;60.01;101142.09;1641571;85;21027;-66
2022/04/25 00:37:04;;;;;;;6.30;4.90;;;;;;;15.61;60.02;101136.40;1650158;87;21075;-66
2022/04/25 00:39:33;;;;;;;6.87;4.67;;;;;;;15.60;60.06;101133.36;1640156;85;21032;-66
2022/04/25 00:42:00;;;;;;;5.35;4.58;;;;;;;15.60;59.98;101132.05;1609290;87;21061;-67
2022/04/25 00:44:27;;;;;;;9.15;4.65;;;;;;;15.59;60.00;101135.60;1642270;85;21048;-66
2022/04/25 00:46:54;;;;;;;5.80;4.35;;;;;;;15.60;60.05;101135.98;1642952;85;21043;-66
2022/04/25 00:49:23;;;;;;;5.80;4.33;;;;;;;15.58;60.08;101136.50;1642973;85;21077;-66
2022/04/25 00:51:51;;;;;;;7.35;4.12;;;;;;;15.60;60.08;101132.05;1643026;85;21046;-66
2022/04/25 00:54:21;;;;;;;7.33;4.00;;;;;;;15.61;60.08;101127.67;1643332;85;21081;-66
2022/04/25 00:56:49;;;;;;;7.85;4.12;;;;;;;15.62;60.10;101118.42;1582645;90;21074;-66
2022/04/25 00:59:21;;;;;;;6.33;4.22;;;;;;;15.62;60.10;101114.48;1588415;90;21054;-66
2022/04/25 01:01:48;;;;;;;8.63;3.87;;;;;;;15.61;60.01;101115.42;1588383;90;21085;-66
2022/04/25 01:04:16;;;;;;;8.53;4.20;;;;;;;15.60;60.00;101121.55;1587781;90;21077;-66
2022/04/25 01:06:43;;;;;;;7.50;4.25;;;;;;;15.60;60.01;101112.86;1585516;90;21045;-67
2022/04/25 01:09:10;;;;;;;7.70;4.37;;;;;;;15.59;60.10;101109.38;1587139;88;21141;-66
2022/04/25 01:11:37;;;;;;;6.08;3.83;;;;;;;15.58;60.18;101107.64;1559348;91;21109;-66
2022/04/25 01:14:16;;;;;;;4.67;4.03;;;;;;;15.58;60.12;101106.81;1564234;91;21062;-66
2022/04/25 01:16:43;;;;;;;7.95;3.83;;;;;;;15.57;60.15;101107.70;1562957;91;21055;-66
2022/04/25 01:19:10;;;;;;;6.08;4.20;;;;;;;15.54;59.98;101106.05;1570805;90;21225;-66
2022/04/25 01:21:46;;;;;;;5.37;3.75;;;;;;;15.52;60.12;101103.94;1580726;90;21726;-67
2022/04/25 01:27:18;;;;;;;4.75;3.58;;;;;;;15.52;60.30;101101.31;1586318;89;21632;-66
2022/04/25 01:29:53;;;;;;;5.42;3.50;;;;;;;15.51;60.29;101103.55;1586714;90;21140;-67
2022/04/25 01:32:22;;;;;;;4.35;3.75;;;;;;;15.49;60.35;101097.51;1578038;90;21150;-66
2022/04/25 01:34:50;;;;;;;4.40;3.45;;;;;;;15.49;60.34;101102.75;1576629;90;21561;-66
2022/04/25 01:37:18;;;;;;;6.03;3.42;;;;;;;15.49;60.36;101108.00;1578753;90;21105;-66
2022/04/25 01:39:52;;;;;;;5.17;3.55;;;;;;;15.50;60.34;101107.07;1577963;90;21085;-66
2022/04/25 01:42:19;;;;;;;3.98;3.35;;;;;;;15.52;60.32;101109.66;1568387;91;21072;-66
2022/04/25 01:44:45;;;;;;;4.80;3.42;;;;;;;15.54;60.29;101109.15;1553552;92;21139;-66
2022/04/25 01:47:13;;;;;;;5.58;3.77;;;;;;;15.55;60.31;101111.70;1561818;91;21167;-67
2022/04/25 01:49:42;;;;;;;4.30;3.20;;;;;;;15.56;60.34;101114.72;1541233;92;21078;-66
2022/04/25 01:52:31;;;;;;;3.75;3.10;;;;;;;15.58;60.33;101102.40;1575510;90;21073;-66
2022/04/25 01:54:58;;;;;;;4.08;3.17;;;;;;;15.59;60.29;101111.99;1581000;90;21092;-65
2022/04/25 01:57:26;;;;;;;6.65;3.77;;;;;;;15.59;60.19;101102.81;1573940;90;21146;-66
2022/04/25 01:59:53;;;;;;;4.72;3.47;;;;;;;15.60;60.18;101105.81;1576174;90;21092;-67
2022/04/25 02:02:22;;;;;;;6.75;2.87;;;;;;;15.59;60.05;101108.06;1578174;90;21048;-66
2022/04/25 02:04:49;;;;;;;5.25;3.12;;;;;;;15.61;60.02;101107.55;1577932;90;21175;-66
2022/04/25 02:07:17;;;;;;;4.60;3.65;;;;;;;15.60;59.97;101111.06;1577685;90;21088;-66
2022/04/25 02:09:45;;;;;;;3.87;3.27;;;;;;;15.58;60.00;101105.02;1584457;88;21074;-67
2022/04/25 02:12:12;;;;;;;6.12;3.37;;;;;;;15.58;59.95;101106.33;1606424;87;21131;-66
2022/04/25 02:14:42;;;;;;;4.22;3.20;;;;;;;15.58;59.81;101108.95;1578942;90;21027;-66
2022/04/25 02:17:09;;;;;;;5.50;3.55;;;;;;;15.57;59.79;101111.20;1580641;89;21080;-66
2022/04/25 02:19:41;;;;;;;6.58;3.72;;;;;;;15.56;59.88;101113.40;1572978;89;21091;-66
2022/04/25 02:22:09;;;;;;;4.45;3.50;;;;;;;15.56;59.81;101116.02;1606915;87;21141;-66
2022/04/25 02:24:39;;;;;;;3.52;3.20;;;;;;;15.56;59.86;101113.40;1575377;89;21584;-66
2022/04/25 02:27:08;;;;;;;3.70;3.17;;;;;;;15.54;59.95;101106.05;1575589;89;21055;-66
2022/04/25 02:29:41;;;;;;;3.75;3.17;;;;;;;15.54;59.87;101111.30;1568603;89;21680;-67
2022/04/25 02:32:12;;;;;;;4.53;3.27;;;;;;;15.54;59.87;101106.05;1608005;87;21050;-66
2022/04/25 02:34:42;;;;;;;3.58;3.05;;;;;;;15.53;59.99;101103.48;1607361;87;21039;-66
2022/04/25 02:37:08;;;;;;;4.45;3.50;;;;;;;15.53;60.04;101099.11;1618508;88;21071;-66
2022/04/25 02:39:36;;;;;;;4.30;3.42;;;;;;;15.53;59.98;101097.80;1591766;89;21096;-66
2022/04/25 02:42:04;;;;;;;5.83;3.67;;;;;;;15.53;60.01;101095.62;1653183;85;21054;-67
2022/04/25 02:44:31;;;;;;;3.27;2.98;;;;;;;15.53;60.02;101104.34;1604530;89;21123;-67
2022/04/25 02:46:58;;;;;;;4.33;3.20;;;;;;;15.53;59.97;101101.73;1643092;87;21046;-66
2022/04/25 02:49:26;;;;;;;4.87;3.55;;;;;;;15.52;59.95;101102.63;1636695;85;21586;-66
2022/04/25 02:51:55;;;;;;;3.72;3.22;;;;;;;15.52;59.87;101098.69;1599098;87;21032;-66
2022/04/25 02:54:23;;;;;;;4.22;3.33;;;;;;;15.52;59.92;101100.00;1635213;85;21582;-66
2022/04/25 02:56:51;;;;;;;3.85;3.55;;;;;;;15.52;59.89;101098.69;1640902;85;21104;-67
2022/04/25 02:59:19;;;;;;;3.77;3.22;;;;;;;15.52;59.91;101094.75;1648601;85;21034;-66
2022/04/25 03:01:46;;;;;;;4.00;3.35;;;;;;;15.50;59.92;101093.95;1639321;87;21026;-66
2022/04/25 03:04:14;;;;;;;4.10;3.47;;;;;;;15.51;59.91;101098.30;1598266;87;21587;-67
2022/04/25 03:06:44;;;;;;;4.22;3.77;;;;;;;15.50;59.89;101100.52;1598306;87;21060;-67
2022/04/25 03:09:11;;;;;;;5.40;3.62;;;;;;;15.50;59.84;101099.20;1609764;87;21062;-67
2022/04/25 03:11:39;;;;;;;5.58;3.77;;;;;;;15.49;59.89;101092.27;1642377;86;21124;-67
2022/04/25 03:14:08;;;;;;;3.98;3.45;;;;;;;15.48;59.87;101087.91;1635225;86;21558;-66
2022/04/25 03:16:36;;;;;;;4.00;3.55;;;;;;;15.49;59.99;101097.51;1642842;87;21579;-66
2022/04/25 03:19:05;;;;;;;4.45;3.52;;;;;;;15.47;60.02;101096.70;1630335;86;21052;-66
2022/04/25 03:21:32;;;;;;;4.97;3.65;;;;;;;15.45;60.15;101091.97;1645329;86;21530;-67
2022/04/25 03:23:59;;;;;;;6.28;4.00;;;;;;;15.46;60.11;101093.67;1636051;86;21150;-66
2022/04/25 03:26:25;;;;;;;3.87;3.40;;;;;;;15.46;60.15;101100.23;1646124;86;21585;-66
2022/04/25 03:28:52;;;;;;;3.77;3.08;;;;;;;15.47;60.20;101103.27;1639266;87;21036;-66
2022/04/25 03:31:21;;;;;;;5.33;3.77;;;;;;;15.48;60.21;101103.65;1631776;85;21100;-66
2022/04/25 03:33:49;;;;;;;4.22;3.83;;;;;;;15.52;60.30;101105.73;1633693;86;21044;-66
2022/04/25 03:36:16;;;;;;;3.95;3.20;;;;;;;15.53;60.29;101113.53;1636012;86;21063;-66
2022/04/25 03:38:44;;;;;;;4.12;3.72;;;;;;;15.56;60.34;101112.09;1646855;86;21054;-66
2022/04/25 03:41:11;;;;;;;5.00;3.85;;;;;;;15.58;60.34;101111.58;1636846;87;21074;-66
2022/04/25 03:43:40;;;;;;;4.95;3.70;;;;;;;15.61;60.42;101109.30;1605503;87;21070;-67
2022/04/25 03:46:08;;;;;;;3.87;3.58;;;;;;;15.62;60.39;101105.30;1596188;88;21557;-66
2022/04/25 03:48:35;;;;;;;6.12;3.70;;;;;;;15.65;60.45;101105.66;1635861;86;21055;-66
2022/04/25 03:51:02;;;;;;;6.35;4.00;;;;;;;15.68;60.56;101107.73;1636091;86;21070;-66
2022/04/25 03:53:30;;;;;;;3.98;3.58;;;;;;;15.71;60.71;101103.67;1635546;86;21117;-66
2022/04/25 03:58:43;;;;;;;6.03;4.08;;;;;;;15.81;60.71;101099.78;1602748;87;21122;-67
2022/04/25 04:01:11;;;;;;;9.50;4.15;;;;;;;15.85;60.82;101097.44;1601966;87;21056;-66
2022/04/25 04:03:40;;;;;;;7.12;4.20;;;;;;;15.91;60.84;101095.89;1602770;87;21047;-66
2022/04/25 04:06:09;;;;;;;6.28;4.42;;;;;;;15.98;60.82;101096.07;1596910;89;21563;-66
2022/04/25 04:08:37;;;;;;;5.42;4.12;;;;;;;16.05;60.77;101103.26;1597193;88;21124;-65
2022/04/25 04:11:06;;;;;;;6.37;3.80;;;;;;;16.10;60.72;101094.28;1635886;86;21111;-66
2022/04/25 04:13:34;;;;;;;7.65;4.87;;;;;;;16.16;60.52;101097.98;1636577;86;21042;-66
2022/04/25 04:16:03;;;;;;;4.28;3.37;;;;;;;16.24;60.41;101101.16;1636236;86;21629;-66
2022/04/25 04:18:31;;;;;;;3.90;3.55;;;;;;;16.32;60.38;101103.95;1635510;86;21078;-66
2022/04/25 04:20:58;;;;;;;6.15;4.10;;;;;;;16.37;60.14;101106.78;1633509;86;21528;-66
2022/04/25 04:23:25;;;;;;;4.97;3.80;;;;;;;16.42;59.98;101110.55;1601994;87;21026;-67
2022/04/25 04:25:52;;;;;;;4.58;3.45;;;;;;;16.47;60.00;101116.45;1603979;87;22485;-66
2022/04/25 04:28:21;;;;;;;4.17;3.77;;;;;;;16.53;59.89;101116.23;1577632;89;21042;-66
2022/04/25 04:30:47;;;;;;;5.40;3.42;;;;;;;16.61;59.85;101119.44;1603250;89;21026;-66
2022/04/25 04:33:15;;;;;;;3.67;3.33;;;;;;;16.68;59.60;101120.88;1602331;87;21574;-66
2022/04/25 04:38:29;;;;;;;3.47;3.10;;;;;;;16.80;58.90;101117.73;1593359;88;21598;-66
2022/04/25 04:40:56;;;;;;;3.35;3.05;;;;;;;16.83;58.62;101117.63;1602593;87;21139;-66
2022/04/25 04:43:22;;;;;;;5.00;3.30;;;;;;;16.85;58.37;101114.47;1599202;87;21118;-65
2022/04/25 04:45:49;;;;;;;4.05;3.35;;;;;;;16.87;58.30;101122.70;1596287;88;21064;-66
2022/04/25 04:48:16;;;;;;;3.35;3.00;;;;;;;16.89;58.35;101123.94;1636144;86;21051;-67
2022/04/25 04:50:43;;;;;;;4.78;3.50;;;;;;;16.92;58.44;101130.36;1634033;86;21060;-66
2022/04/25 04:53:11;;;;;;;4.47;3.08;;;;;;;16.95;58.35;101135.51;1602354;87;21126;-66
2022/04/25 04:55:39;;;;;;;5.62;3.52;;;;;;;16.98;58.25;101139.34;1594871;88;21128;-66
2022/04/25 04:58:06;;;;;;;5.55;3.52;;;;;;;17.00;58.08;101141.45;1637041;87;21058;-66
2022/04/25 05:00:33;;;;;;;3.75;3.10;;;;;;;17.00;57.89;101140.12;1633454;86;21056;-67
2022/04/25 05:03:00;;;;;;;3.58;2.87;;;;;;;17.02;57.95;101143.06;1636712;86;21539;-66
2022/04/25 05:05:27;;;;;;;5.67;3.00;;;;;;;17.05;57.70;101139.46;1636449;86;21032;-66
2022/04/25 05:07:54;;;;;;;6.58;3.37;;;;;;;17.06;57.75;101146.44;1636472;86;21056;-66
2022/04/25 05:10:22;;;;;;;2.80;2.55;;;;;;;17.06;57.56;101142.50;1636676;86;21534;-66
2022/04/25 05:12:52;;;;;;;3.52;2.80;;;;;;;17.06;57.40;101142.02;1642489;85;21069;-66
2022/04/25 05:15:19;;;;;;;5.33;2.90;;;;;;;17.06;57.39;101142.02;1640811;85;21083;-67
2022/04/25 05:17:53;;;;;;;3.22;2.83;;;;;;;17.05;57.46;101142.09;1609283;87;21063;-65
2022/04/25 05:20:23;;;;;;;6.47;3.00;;;;;;;17.04;57.43;101137.77;1643361;85;21518;-66
2022/04/25 05:22:52;;;;;;;3.25;2.98;;;;;;;17.02;57.50;101143.06;1618727;87;21085;-67
2022/04/25 05:25:21;;;;;;;4.97;3.30;;;;;;;17.04;57.67;101145.66;1646541;87;21037;-66
2022/04/25 05:27:51;;;;;;;3.22;2.92;;;;;;;17.05;57.70;101144.72;1640003;85;21059;-66
2022/04/25 05:30:22;;;;;;;4.25;3.20;;;;;;;17.07;57.71;101141.11;1609468;87;21562;-67
2022/04/25 05:32:51;;;;;;;3.52;3.17;;;;;;;17.11;57.77;101148.40;1642526;85;21550;-67
2022/04/25 05:35:19;;;;;;;4.50;3.20;;;;;;;17.19;57.81;101155.50;1643082;85;21035;-67
2022/04/25 05:37:47;;;;;;;3.62;3.00;;;;;;;17.36;57.78;101158.73;1643536;85;21547;-66
2022/04/25 05:40:16;;;;;;;4.10;3.50;;;;;;;17.61;57.39;101158.09;1643403;85;21018;-66
2022/04/25 05:42:44;;;;;;;4.83;2.90;;;;;;;17.96;57.03;101151.23;1645054;85;21012;-66
2022/04/25 05:45:16;;;;;;;5.15;3.12;;;;;;;18.39;56.05;101158.85;1640543;87;21079;-65
2022/04/25 05:47:45;;;;;;;3.75;2.65;;;;;;;18.84;54.99;101152.70;1641381;85;21103;-65
2022/04/25 05:52:45;;;;;;;;;;;;;;;19.89;52.52;101156.05;1589282;89;21069;-66
2022/04/25 05:55:12;;;;;;;3.60;2.47;;;;;;;20.46;51.26;101158.20;1588237;89;20400;-66
2022/04/25 05:57:43;;;;;;;3.98;2.50;;;;;;;21.02;49.80;101159.78;1588193;89;21100;-66
2022/04/25 06:00:12;;;;;;;2.92;2.35;;;;;;;21.56;48.32;101150.36;1588198;89;21103;-65
2022/04/25 06:02:42;;;;;;;2.50;2.30;;;;;;;22.04;47.01;101159.77;1588544;89;21037;-65
2022/04/25 06:05:11;;;;;;;3.45;2.50;;;;;;;22.41;46.13;101158.27;1588023;90;21097;-64
2022/04/25 06:07:43;;;;;;;3.80;2.53;;;;;;;22.75;44.85;101161.78;1588441;89;21089;-66
2022/04/25 06:10:11;;;;;;;2.80;2.30;;;;;;;23.03;44.12;101151.06;1587873;89;21147;-66
2022/04/25 06:12:41;;;;;;;4.22;2.40;;;;;;;23.31;43.52;101151.36;1600170;88;21060;-65
2022/04/25 06:15:10;;;;;;;2.65;2.10;;;;;;;23.60;42.59;101156.88;1601864;88;21105;-66
2022/04/25 06:17:38;;;;;;;3.22;2.67;;;;;;;23.83;41.93;101158.80;1601656;88;21096;-65
2022/04/25 06:20:07;;;;;;;3.12;2.55;;;;;;;23.99;41.61;101160.73;1601764;90;21124;-65
2022/04/25 06:22:35;;;;;;;2.50;2.30;;;;;;;24.15;40.82;101158.71;1601583;88;21624;-65
2022/04/25 06:25:05;;;;;;;3.12;2.17;;;;;;;24.23;40.30;101159.01;1601563;88;21065;-65
2022/04/25 06:27:32;;;;;;;3.62;2.40;;;;;;;24.18;40.12;101160.31;1601797;88;21548;-65
2022/04/25 06:30:01;;;;;;;2.45;2.25;;;;;;;24.08;39.98;101152.16;1633003;86;21037;-65
2022/04/25 06:32:29;;;;;;;2.50;2.20;;;;;;;24.02;40.34;101150.38;1628015;86;21098;-65
2022/04/25 06:34:56;;;;;;;4.20;2.50;;;;;;;24.04;40.00;101148.02;1616759;87;21061;-66
2022/04/25 06:37:23;;;;;;;5.30;2.55;;;;;;;24.08;39.95;101150.83;1625085;86;21538;-66
2022/04/25 06:39:51;;;;;;;7.70;3.08;;;;;;;24.09;39.96;101143.20;1616386;87;21043;-66
2022/04/25 06:42:18;;;;;;;2.65;2.45;;;;;;;24.07;39.75;101143.79;1624289;86;21605;-66
2022/04/25 06:44:45;;;;;;;6.45;2.92;;;;;;;24.07;39.76;101142.97;1615567;87;21126;-66
2022/04/25 06:47:12;;;;;;;4.10;2.60;;;;;;;24.04;39.48;101144.03;1623753;88;21049;-66
2022/04/25 06:49:39;;;;;;;4.35;2.72;;;;;;;23.99;39.60;101144.78;1622731;86;21066;-66
2022/04/25 06:52:09;;;;;;;4.83;2.95;;;;;;;23.95;39.43;101143.30;1622803;86;21075;-65
2022/04/25 06:54:35;;;;;;;4.72;2.70;;;;;;;23.91;39.37;101141.83;1624217;86;21109;-65
2022/04/25 06:57:05;;;;;;;3.42;2.70;;;;;;;23.86;39.60;101130.69;1616634;87;21579;-65
2022/04/25 06:59:33;;;;;;;10.32;3.60;;;;;;;23.81;39.55;101126.16;1635331;88;21544;-66
2022/04/25 07:02:03;;;;;;;5.00;3.27;;;;;;;23.74;39.73;101127.54;1622813;86;21051;-66
2022/04/25 07:04:30;;;;;;;5.33;2.65;;;;;;;23.70;39.69;101124.73;1623891;86;21614;-66
2022/04/25 07:06:57;;;;;;;3.35;2.80;;;;;;;23.67;39.84;101127.63;1634923;86;21460;-65
2022/04/25 07:09:26;;;;;;;4.17;2.80;;;;;;;23.64;39.70;101130.47;1616920;88;21091;-66
2022/04/25 07:11:54;;;;;;;9.38;3.30;;;;;;;23.60;39.62;101142.27;1625820;86;21082;-66
2022/04/25 07:14:23;;;;;;;5.15;3.58;;;;;;;23.57;39.75;101146.48;1584609;88;21070;-66
2022/04/25 07:19:21;;;;;;;3.52;2.90;;;;;;;23.39;40.03;101143.75;1539550;93;21116;-63
2022/04/25 07:30:07;;;;;;;4.42;2.90;;;;;;;23.13;40.40;101145.50;1525210;93;21162;-64
2022/04/25 07:32:37;;;;;;;3.62;2.80;;;;;;;22.98;40.74;101145.70;1525354;93;21077;-65
2022/04/25 07:35:04;;;;;;;5.83;3.52;;;;;;;22.79;40.92;101149.19;1525066;93;21128;-65
2022/04/25 07:37:35;;;;;;;6.43;3.53;;;;;;;22.57;41.36;101143.92;1525513;93;21101;-66
2022/04/25 07:40:06;;;;;;;5.22;3.42;;;;;;;22.36;41.58;101145.30;1524875;93;21137;-66
2022/04/25 07:42:33;;;;;;;5.08;3.02;;;;;;;22.14;42.15;101154.25;1525357;93;21123;-66
2022/04/25 07:45:02;;;;;;;4.22;3.27;;;;;;;21.91;42.59;101153.52;1525069;93;21144;-66
2022/04/25 07:47:32;;;;;;;4.33;3.27;;;;;;;21.72;43.13;101155.59;1520508;93;21102;-66
2022/04/25 07:50:00;;;;;;;6.60;3.12;;;;;;;21.52;43.61;101150.62;1525167;93;21156;-66
2022/04/25 07:52:30;;;;;;;5.30;3.00;;;;;;;21.37;43.82;101148.43;1524672;94;21097;-65
2022/04/25 07:54:56;;;;;;;4.97;3.05;;;;;;;21.22;44.23;101144.54;1525407;93;21077;-65
2022/04/25 07:57:23;;;;;;;4.33;2.90;;;;;;;21.08;44.60;101139.22;1524938;93;21598;-66
2022/04/25 07:59:52;;;;;;;5.60;2.95;;;;;;;20.99;44.84;101146.72;1525232;93;21636;-66
2022/04/25 08:02:20;;;;;;;5.17;3.15;;;;;;;20.92;44.96;101148.01;1525129;93;21134;-65
2022/04/25 08:04:48;;;;;;;4.95;3.40;;;;;;;20.85;45.44;101142.71;1525529;93;21621;-65
2022/04/25 08:07:15;;;;;;;3.72;3.10;;;;;;;20.83;45.96;101143.27;1525168;93;21100;-66
2022/04/25 08:09:44;;;;;;;5.70;3.15;;;;;;;20.82;45.99;101136.26;1525224;92;21137;-66
2022/04/25 08:18:04;;;;;;;5.97;3.40;;;;;;;20.85;46.06;101128.16;1525090;93;21172;-64
2022/04/25 08:20:36;;;;;;;3.70;3.08;;;;;;;20.87;45.82;101131.56;1525263;94;21081;-65
2022/04/25 08:23:09;;;;;;;4.05;2.72;;;;;;;20.90;46.05;101123.44;1577979;89;21313;-65
2022/04/25 08:25:39;;;;;;;3.95;2.95;;;;;;;20.92;45.56;101120.23;1593366;88;21548;-64
2022/04/25 08:28:09;;;;;;;4.70;3.35;;;;;;;20.91;45.24;101119.87;1593163;88;21045;-64
2022/04/25 08:30:36;;;;;;;6.92;3.30;;;;;;;20.89;45.56;101123.07;1612056;87;21091;-64
2022/04/25 08:33:04;;;;;;;5.58;2.90;;;;;;;20.84;45.60;101111.89;1614249;87;21066;-64
2022/04/25 08:35:31;;;;;;;5.30;3.40;;;;;;;20.81;46.09;101112.06;1602760;87;21116;-65
2022/04/25 08:37:57;;;;;;;5.70;3.20;;;;;;;20.80;46.16;101109.05;1602602;87;21079;-65
2022/04/25 08:40:25;;;;;;;4.15;3.12;;;;;;;20.80;45.95;101109.05;1602527;87;21044;-65
2022/04/25 08:42:56;;;;;;;5.60;3.00;;;;;;;20.78;46.03;101110.07;1602505;87;21631;-65
2022/04/25 08:45:23;;;;;;;5.75;3.00;;;;;;;20.75;45.97;101104.48;1611920;87;21048;-65
2022/04/25 08:47:54;;;;;;;5.20;3.10;;;;;;;20.72;46.04;101107.32;1611187;87;21143;-65
2022/04/25 08:50:21;;;;;;;4.90;3.45;;;;;;;20.68;46.44;101105.80;1615156;88;21054;-65
2022/04/25 08:52:49;;;;;;;5.70;3.12;;;;;;;20.67;46.59;101100.61;1611163;87;21048;-65
2022/04/25 08:55:17;;;;;;;5.28;3.52;;;;;;;20.68;46.30;101101.83;1612489;87;21039;-65
2022/04/25 08:57:46;;;;;;;5.20;3.62;;;;;;;20.71;46.23;101100.80;1602613;87;21080;-63
2022/04/25 09:00:15;;;;;;;5.45;3.60;;;;;;;20.74;46.31;101103.26;1602641;87;21064;-64
2022/04/25 09:02:47;;;;;;;5.90;3.27;;;;;;;20.77;46.20;101103.92;1602731;87;21037;-64
2022/04/25 09:05:14;;;;;;;6.28;3.25;;;;;;;20.80;46.23;101097.14;1602684;87;21099;-64
2022/04/25 09:07:44;;;;;;;5.85;3.40;;;;;;;20.80;45.98;101087.89;1602755;87;21082;-65
2022/04/25 09:10:15;;;;;;;6.10;3.12;;;;;;;20.80;46.18;101086.56;1601429;87;21547;-65
2022/04/25 09:12:45;;;;;;;5.58;3.10;;;;;;;20.80;45.94;101082.59;1589649;88;21166;-65
2022/04/25 09:15:11;;;;;;;5.90;3.62;;;;;;;20.79;45.95;101075.59;1598908;88;21127;-65
2022/04/25 09:17:38;;;;;;;5.40;3.20;;;;;;;20.78;46.11;101079.19;1599157;90;21080;-65
2022/04/25 09:20:07;;;;;;;6.70;3.20;;;;;;;20.77;45.90;101077.47;1598674;88;21068;-65
2022/04/25 09:22:39;;;;;;;5.70;3.20;;;;;;;20.74;45.98;101072.38;1596610;88;21094;-65
2022/04/25 09:25:10;;;;;;;6.00;3.17;;;;;;;20.73;45.91;101070.66;1599064;88;21111;-66
2022/04/25 09:27:38;;;;;;;6.60;3.02;;;;;;;20.72;45.80;101071.63;1597734;88;21079;-65
2022/04/25 09:30:20;;;;;;;6.47;3.25;;;;;;;20.72;45.96;101072.94;1606851;88;21092;-65
2022/04/25 09:32:52;;;;;;;6.80;3.60;;;;;;;20.71;45.99;101071.22;1605090;88;21583;-66
2022/04/25 09:38:08;;;;;;;8.38;3.65;;;;;;;20.69;45.95;101069.14;1582827;89;21074;-65
2022/04/25 09:40:37;;;;;;;5.50;3.33;;;;;;;20.69;46.07;101067.81;1576480;89;21062;-66
2022/04/25 09:43:14;;;;;;;8.25;3.83;;;;;;;20.67;46.25;101055.16;1574371;89;21064;-66
2022/04/25 09:45:44;;;;;;;5.08;3.52;;;;;;;20.65;46.28;101049.11;1524181;91;21104;-66
2022/04/25 09:48:15;;;;;;;5.08;3.25;;;;;;;20.64;46.20;101043.45;1524325;92;21161;-65
2022/04/25 09:50:45;;;;;;;5.08;3.27;;;;;;;20.63;46.50;101037.77;1524303;92;21077;-65
2022/04/25 09:53:11;;;;;;;8.18;3.62;;;;;;;20.62;46.42;101038.73;1524214;94;21611;-65
2022/04/25 09:55:39;;;;;;;7.62;4.15;;;;;;;20.61;46.41;101048.91;1524043;94;21096;-64
2022/04/25 09:58:18;;;;;;;4.53;3.05;;;;;;;20.58;46.60;101035.88;1524214;92;21128;-65
2022/04/25 10:00:47;;;;;;;9.43;3.47;;;;;;;20.59;46.49;101036.25;1478748;97;21067;-64
2022/04/25 10:03:16;;;;;;;4.55;3.10;;;;;;;20.62;46.50;101041.38;1478166;95;21083;-65
2022/04/25 10:05:49;;;;;;;6.40;3.60;;;;;;;20.63;46.56;101037.77;1475639;97;21105;-64
2022/04/25 10:08:19;;;;;;;10.08;3.90;;;;;;;20.65;46.41;101034.56;1476565;97;21159;-65
2022/04/25 10:10:49;;;;;;;5.67;2.98;;;;;;;20.40;47.05;101034.31;1462892;97;21092;-64
2022/04/25 10:13:16;;;;;;;8.58;3.65;;;;;;;20.39;47.19;101031.27;1460517;97;21188;-64
2022/04/25 10:15:44;;;;;;;12.53;3.75;;;;;;;20.43;47.20;101035.44;1465512;97;21684;-64
2022/04/25 10:18:11;;;;;;;5.12;3.17;;;;;;;20.48;47.35;101037.83;1465722;97;21143;-65
2022/04/25 10:20:41;;;;;;;7.30;3.47;;;;;;;20.50;47.20;101038.13;1465519;97;21120;-64
2022/04/25 10:23:10;;;;;;;5.97;3.42;;;;;;;20.55;47.23;101040.02;1465641;97;21645;-64
2022/04/25 10:25:40;;;;;;;;;;;;;;;20.60;46.86;101042.39;1468194;97;21141;-65
2022/04/25 10:28:18;;;;;;;5.22;3.35;;;;;;;20.63;46.83;101043.06;1466846;97;20486;-64
2022/04/25 10:30:48;;;;;;;7.67;3.30;;;;;;;20.65;47.01;101041.17;1464402;97;21167;-66
2022/04/25 10:33:21;;;;;;;6.35;3.75;;;;;;;20.69;46.96;101030.80;1466836;97;21128;-65
2022/04/25 10:35:50;;;;;;;;;;;;;;;20.75;46.72;101037.54;1489233;96;22514;-65
2022/04/25 10:38:48;;;;;;;7.87;3.55;;;;;;;20.81;46.66;101028.74;1487187;96;20138;-66
2022/04/25 10:44:24;;;;;;;4.83;3.05;;;;;;;20.92;46.24;101039.55;1524322;92;21092;-66
2022/04/25 10:47:13;;;;;;;5.40;3.47;;;;;;;20.95;46.20;101034.09;1524278;93;21635;-65
2022/04/25 10:50:02;;;;;;;4.75;2.83;;;;;;;20.97;45.97;101038.81;1522160;92;21112;-66
2022/04/25 10:52:42;;;;;;;7.47;3.72;;;;;;;21.00;46.10;101037.29;1524370;92;21560;-65
2022/04/25 10:55:33;;;;;;;5.12;3.42;;;;;;;21.02;45.69;101032.78;1524214;92;21092;-63
2022/04/25 10:58:09;;;;;;;7.80;3.60;;;;;;;21.01;45.70;101031.07;1624346;85;21543;-64
2022/04/25 11:00:45;;;;;;;5.53;3.55;;;;;;;20.99;45.98;101032.95;1639973;85;21015;-64
2022/04/25 11:03:25;;;;;;;7.37;4.08;;;;;;;20.99;45.93;101031.63;1646061;85;21586;-65
2022/04/25 11:05:57;;;;;;;42.60;5.65;;;;;;;20.98;46.01;101029.91;1645163;85;21535;-64
2022/04/25 11:08:32;;;;;;;10.68;4.03;;;;;;;20.97;45.82;101042.78;1656970;86;21073;-64
2022/04/25 11:11:09;;;;;;;9.00;3.55;;;;;;;20.95;45.93;101032.77;1611131;87;21094;-64
2022/04/25 11:14:01;;;;;;;6.15;3.17;;;;;;;20.93;45.74;101028.03;1603870;87;21108;-65
2022/04/25 11:16:26;;;;;;;5.67;3.27;;;;;;;20.90;45.58;101032.64;1605263;89;21043;-65
2022/04/25 11:19:21;;;;;;;3.42;3.02;;;;;;;20.87;45.96;101028.41;1591189;88;21060;-65
2022/04/25 11:21:55;;;;;;;7.47;4.22;;;;;;;20.85;45.92;101026.33;1602343;89;21610;-65
2022/04/25 11:24:38;;;;;;;3.42;3.10;;;;;;;20.85;45.91;101022.36;1599974;88;21032;-65
2022/04/25 11:27:11;;;;;;;6.12;3.37;;;;;;;20.96;45.60;101019.90;1543660;90;21177;-65
2022/04/25 11:29:45;;;;;;;4.25;3.37;;;;;;;21.12;45.33;101015.05;1543763;91;21061;-65
2022/04/25 11:32:35;;;;;;;5.30;3.55;;;;;;;21.13;45.13;101012.30;1546266;91;21036;-65
2022/04/25 11:35:04;;;;;;;3.33;3.10;;;;;;;21.13;45.10;101002.17;1542081;92;21740;-65
2022/04/25 11:37:32;;;;;;;4.87;3.25;;;;;;;21.11;45.05;100994.80;1548422;91;21651;-65
2022/04/25 11:40:09;;;;;;;6.90;3.77;;;;;;;21.06;45.09;100991.97;1542076;92;21057;-64
2022/04/25 11:42:37;;;;;;;7.00;3.60;;;;;;;21.03;45.23;101001.44;1548318;91;21131;-64
2022/04/25 11:45:06;;;;;;;5.35;3.42;;;;;;;21.00;45.52;101018.77;1541787;92;21114;-65
2022/04/25 11:47:34;;;;;;;5.60;3.60;;;;;;;21.00;45.30;101026.70;1548564;92;21116;-65
2022/04/25 11:50:05;;;;;;;6.05;3.72;;;;;;;20.99;45.24;101016.22;1542009;92;21118;-65
2022/04/25 11:52:33;;;;;;;4.10;3.52;;;;;;;20.97;45.27;101008.39;1548407;91;21127;-65
2022/04/25 11:55:00;;;;;;;6.80;3.40;;;;;;;20.94;45.36;100997.98;1541992;92;21082;-66
2022/04/25 11:57:27;;;;;;;6.10;3.87;;;;;;;20.90;45.63;101001.75;1548298;91;21602;-65
2022/04/25 12:00:20;;;;;;;7.95;3.55;;;;;;;20.90;45.77;101010.16;1541900;92;21046;-66
2022/04/25 12:02:47;;;;;;;7.03;4.62;;;;;;;20.87;45.89;101000.63;1548406;91;21074;-65
2022/04/25 12:05:31;;;;;;;7.20;4.22;;;;;;;20.88;45.88;100995.70;1541846;92;21094;-65
2022/04/25 12:16:18;;;;;;;8.95;4.60;;;;;;;20.80;46.24;100983.88;1604201;88;21084;-64
2022/04/25 12:18:50;;;;;;;5.65;4.12;;;;;;;20.77;46.39;100981.44;1560598;90;21118;-65